Time;durP1;ratioP1;P1;durP2;ratioP2;P2;SDS_P1;SDS_P2;PMS_P1;PMS_P2;Temp;Humidity;BMP_temperature;BMP_pressure;BME280_temperature;BME280_humidity;BME280_pressure;Samples;Min_cycle;Max_cycle;Signal;HPM_P1;HPM_P2
2023/07/02 00:00:38;;;;;;;42.95;24.75;;;17.80;76.20;;;;;;5029397;28;20116;-74
2023/07/02 00:03:04;;;;;;;50.15;27.65;;;17.70;76.30;;;;;;5029357;28;20219;-75
2023/07/02 00:05:30;;;;;;;42.95;25.77;;;17.70;76.50;;;;;;5029437;28;20025;-74
2023/07/02 00:07:56;;;;;;;45.80;26.63;;;17.70;76.40;;;;;;5024497;28;20125;-75
2023/07/02 00:10:21;;;;;;;46.28;26.80;;;17.70;76.60;;;;;;5030590;28;20470;-75
2023/07/02 00:12:47;;;;;;;44.58;25.80;;;17.70;76.80;;;;;;5023698;28;20021;-75
2023/07/02 00:15:13;;;;;;;43.65;26.13;;;17.70;76.80;;;;;;5025073;28;20410;-75
2023/07/02 00:17:39;;;;;;;46.75;25.70;;;17.60;77.00;;;;;;5024978;28;20288;-75
2023/07/02 00:20:13;;;;;;;49.80;27.52;;;17.60;77.10;;;;;;5035584;28;20079;-74
2023/07/02 00:22:41;;;;;;;45.95;27.60;;;17.60;77.10;;;;;;5023132;28;20025;-74
2023/07/02 00:25:07;;;;;;;50.47;26.83;;;17.60;77.40;;;;;;5028085;28;20491;-76
2023/07/02 00:27:33;;;;;;;45.95;26.92;;;17.60;77.70;;;;;;5028019;28;20032;-76
2023/07/02 00:29:59;;;;;;;45.00;26.42;;;17.60;77.80;;;;;;5028616;28;20112;-78
2023/07/02 00:32:24;;;;;;;46.55;26.90;;;17.60;77.70;;;;;;5028577;28;20030;-75
2023/07/02 00:34:50;;;;;;;49.28;28.33;;;17.50;77.90;;;;;;5027114;28;20034;-75
2023/07/02 00:37:16;;;;;;;47.50;27.33;;;17.50;78.10;;;;;;5037816;28;20045;-75
2023/07/02 00:39:41;;;;;;;47.50;27.60;;;17.50;78.40;;;;;;5028084;28;20112;-75
2023/07/02 00:42:08;;;;;;;50.08;28.85;;;17.50;78.30;;;;;;5024675;28;20025;-76
2023/07/02 00:44:40;;;;;;;50.67;28.17;;;17.50;78.30;;;;;;5028487;28;20049;-77
2023/07/02 00:47:07;;;;;;;47.33;26.85;;;17.50;78.10;;;;;;5031459;28;20025;-75
2023/07/02 00:49:33;;;;;;;48.67;28.00;;;17.50;78.40;;;;;;5027959;28;20017;-75
2023/07/02 00:51:59;;;;;;;49.05;27.40;;;17.40;78.40;;;;;;5027589;28;20033;-74
2023/07/02 00:54:27;;;;;;;49.03;27.45;;;17.40;78.70;;;;;;5026881;28;20390;-74
2023/07/02 00:56:53;;;;;;;48.42;28.92;;;17.40;78.80;;;;;;5035042;28;20033;-74
2023/07/02 00:59:18;;;;;;;46.60;28.05;;;17.40;78.90;;;;;;5026602;28;20147;-74
2023/07/02 01:01:49;;;;;;;50.70;27.33;;;17.40;79.10;;;;;;5036373;28;20029;-75
2023/07/02 01:04:17;;;;;;;52.45;29.08;;;17.30;79.20;;;;;;5021388;28;20539;-74
2023/07/02 01:06:44;;;;;;;46.15;27.58;;;17.30;79.10;;;;;;5033119;28;20405;-74
2023/07/02 01:09:10;;;;;;;50.20;29.40;;;17.20;79.60;;;;;;5022513;28;20026;-73
2023/07/02 01:11:50;;;;;;;48.67;27.13;;;17.20;79.70;;;;;;5024695;28;20047;-73
2023/07/02 01:14:26;;;;;;;46.17;28.55;;;17.20;79.90;;;;;;5031854;28;20425;-74
2023/07/02 01:16:54;;;;;;;50.60;29.75;;;17.20;79.80;;;;;;5025018;28;20124;-74
2023/07/02 01:19:32;;;;;;;48.97;28.25;;;17.10;80.00;;;;;;5032099;28;20037;-74
2023/07/02 01:21:58;;;;;;;56.55;30.48;;;17.00;80.40;;;;;;5020546;28;20406;-77
2023/07/02 01:24:24;;;;;;;49.97;30.40;;;17.00;80.70;;;;;;5028427;28;20075;-73
2023/07/02 01:26:50;;;;;;;56.45;29.85;;;17.00;80.80;;;;;;5030823;28;20037;-74
2023/07/02 01:29:17;;;;;;;56.85;31.05;;;16.90;81.10;;;;;;5028613;28;20037;-77
2023/07/02 01:31:43;;;;;;;53.00;31.13;;;16.90;81.20;;;;;;5030843;28;20119;-77
2023/07/02 01:34:09;;;;;;;53.45;29.30;;;16.90;81.20;;;;;;5021006;28;20069;-74
2023/07/02 01:36:35;;;;;;;56.10;30.40;;;16.90;81.30;;;;;;5029858;28;20048;-74
2023/07/02 01:39:00;;;;;;;54.17;30.80;;;16.90;81.40;;;;;;5024809;28;20025;-75
2023/07/02 01:41:26;;;;;;;51.83;30.95;;;16.90;81.40;;;;;;5023575;28;20041;-75
2023/07/02 01:43:51;;;;;;;60.75;29.95;;;16.80;81.70;;;;;;5033360;28;20367;-75
2023/07/02 01:46:17;;;;;;;52.00;29.77;;;16.80;81.80;;;;;;5030981;28;20075;-74
2023/07/02 01:48:43;;;;;;;52.28;30.58;;;16.80;82.00;;;;;;5029598;28;20083;-75
2023/07/02 01:51:08;;;;;;;51.55;30.55;;;16.70;82.10;;;;;;5021183;28;20029;-74
2023/07/02 01:53:34;;;;;;;50.70;31.25;;;16.70;82.20;;;;;;5035361;28;20021;-74
2023/07/02 01:56:00;;;;;;;53.75;31.80;;;16.70;82.30;;;;;;5033710;28;20134;-75
2023/07/02 01:58:25;;;;;;;47.47;28.60;;;16.70;82.40;;;;;;5029094;28;20027;-73
2023/07/02 02:00:51;;;;;;;52.75;29.85;;;16.70;82.40;;;;;;5024979;28;20477;-74
2023/07/02 02:03:17;;;;;;;60.25;31.63;;;16.70;82.40;;;;;;5027533;28;20432;-74
2023/07/02 02:05:42;;;;;;;56.83;30.25;;;16.70;82.50;;;;;;5015587;28;20033;-74
2023/07/02 02:08:08;;;;;;;49.33;29.73;;;16.80;82.50;;;;;;5026240;28;20055;-74
2023/07/02 02:10:34;;;;;;;59.40;32.35;;;16.80;82.60;;;;;;5035735;28;20124;-74
2023/07/02 02:12:59;;;;;;;58.55;32.78;;;16.70;82.70;;;;;;5024194;28;20159;-74
2023/07/02 02:15:25;;;;;;;49.40;30.65;;;16.70;82.70;;;;;;5026746;28;20140;-76
2023/07/02 02:17:51;;;;;;;55.85;30.75;;;16.70;82.80;;;;;;5021631;28;20462;-74
2023/07/02 02:20:16;;;;;;;53.40;29.83;;;16.70;82.80;;;;;;5037214;28;20036;-74
2023/07/02 02:22:42;;;;;;;51.78;30.65;;;16.70;82.80;;;;;;5026270;28;20029;-77
2023/07/02 02:25:09;;;;;;;54.97;31.65;;;16.70;82.80;;;;;;5025426;28;20025;-75
2023/07/02 02:27:34;;;;;;;51.72;31.65;;;16.70;82.90;;;;;;5032906;28;20025;-75
2023/07/02 02:30:00;;;;;;;57.80;31.27;;;16.70;83.00;;;;;;5029519;28;20843;-74
2023/07/02 02:32:26;;;;;;;62.67;31.33;;;16.70;83.00;;;;;;5027987;28;20462;-74
2023/07/02 02:34:51;;;;;;;58.00;30.60;;;16.70;83.10;;;;;;5025193;28;20037;-74
2023/07/02 02:37:18;;;;;;;57.20;31.42;;;16.70;83.20;;;;;;5020958;28;20041;-74
2023/07/02 02:39:44;;;;;;;57.53;32.20;;;16.70;83.00;;;;;;5026987;28;20029;-74
2023/07/02 02:42:10;;;;;;;54.17;31.65;;;16.60;83.20;;;;;;5033168;28;20044;-75
2023/07/02 02:44:36;;;;;;;58.05;31.45;;;16.70;83.40;;;;;;5027880;28;20473;-75
2023/07/02 02:47:02;;;;;;;60.03;31.50;;;16.70;83.40;;;;;;5033263;28;20029;-74
2023/07/02 02:49:28;;;;;;;63.95;32.35;;;16.70;83.30;;;;;;5028446;28;20103;-74
2023/07/02 02:51:53;;;;;;;58.50;32.50;;;16.60;83.40;;;;;;5035107;28;20087;-74
2023/07/02 02:54:19;;;;;;;58.40;33.30;;;16.60;83.50;;;;;;5020389;28;20088;-74
2023/07/02 02:56:45;;;;;;;54.25;30.40;;;16.60;83.50;;;;;;5027703;28;20167;-74
2023/07/02 02:59:10;;;;;;;60.70;32.15;;;16.70;83.50;;;;;;5026655;28;20433;-74
2023/07/02 03:01:36;;;;;;;60.10;30.70;;;16.70;83.40;;;;;;5032198;28;20052;-74
2023/07/02 03:04:02;;;;;;;55.03;31.75;;;16.70;83.50;;;;;;5023286;28;20025;-75
2023/07/02 03:06:27;;;;;;;58.20;31.38;;;16.60;83.50;;;;;;5022680;28;20042;-76
2023/07/02 03:08:53;;;;;;;65.00;34.35;;;16.60;83.70;;;;;;5020065;28;20363;-74
2023/07/02 03:11:19;;;;;;;59.17;32.65;;;16.60;83.70;;;;;;5029005;28;20036;-74
2023/07/02 03:13:44;;;;;;;54.92;31.27;;;16.60;83.80;;;;;;5013390;28;20087;-74
2023/07/02 03:16:10;;;;;;;56.85;32.72;;;16.60;83.80;;;;;;5019925;28;20410;-74
2023/07/02 03:18:36;;;;;;;57.17;31.83;;;16.60;83.80;;;;;;5022873;28;20453;-74
2023/07/02 03:21:02;;;;;;;57.67;34.47;;;16.60;83.90;;;;;;5017462;28;20029;-75
2023/07/02 03:23:27;;;;;;;57.00;32.55;;;16.60;83.80;;;;;;5027579;28;20253;-74
2023/07/02 03:25:53;;;;;;;63.35;32.83;;;16.60;83.80;;;;;;5025481;28;20060;-73
2023/07/02 03:28:19;;;;;;;52.88;31.33;;;16.60;83.90;;;;;;5020778;28;20032;-75
2023/07/02 03:30:44;;;;;;;52.33;32.90;;;16.60;84.10;;;;;;5032321;28;20033;-74
2023/07/02 03:33:10;;;;;;;63.50;33.60;;;16.60;84.20;;;;;;5022226;28;20470;-75
2023/07/02 03:35:36;;;;;;;52.53;31.63;;;16.50;84.20;;;;;;5023349;28;20047;-74
2023/07/02 03:38:03;;;;;;;55.60;32.50;;;16.60;84.20;;;;;;5019588;28;20109;-73
2023/07/02 03:40:28;;;;;;;59.17;35.10;;;16.50;84.30;;;;;;5029688;28;20479;-77
2023/07/02 03:42:54;;;;;;;57.10;33.78;;;16.50;84.40;;;;;;5032171;28;20128;-75
2023/07/02 03:45:20;;;;;;;60.58;35.00;;;16.60;84.30;;;;;;5037137;28;20049;-75
2023/07/02 03:47:45;;;;;;;59.30;33.63;;;16.60;84.30;;;;;;5031540;28;20037;-74
2023/07/02 03:50:11;;;;;;;62.40;34.05;;;16.50;84.40;;;;;;5027142;28;20363;-75
2023/07/02 03:52:36;;;;;;;62.10;34.17;;;16.60;84.30;;;;;;5031499;28;20033;-74
2023/07/02 03:55:02;;;;;;;56.60;32.35;;;16.60;84.30;;;;;;5035907;28;20507;-73
2023/07/02 03:57:28;;;;;;;56.80;32.42;;;16.60;84.40;;;;;;5034621;28;20037;-77
2023/07/02 03:59:54;;;;;;;59.67;35.03;;;16.60;84.50;;;;;;5028055;28;20039;-75
2023/07/02 04:02:19;;;;;;;57.55;31.52;;;16.60;84.40;;;;;;5033112;28;20037;-74
2023/07/02 04:04:45;;;;;;;51.63;30.67;;;16.60;84.40;;;;;;5028176;28;20410;-73
2023/07/02 04:07:11;;;;;;;55.47;33.17;;;16.60;84.40;;;;;;5031331;28;20035;-74
2023/07/02 04:09:36;;;;;;;55.97;31.88;;;16.60;84.50;;;;;;5022246;28;20033;-74
2023/07/02 04:12:02;;;;;;;54.75;31.88;;;16.60;84.50;;;;;;5032000;28;20316;-73
2023/07/02 04:14:28;;;;;;;51.85;31.75;;;16.60;84.50;;;;;;5025725;28;20049;-75
2023/07/02 04:16:53;;;;;;;60.47;32.10;;;16.60;84.40;;;;;;5031012;28;20037;-76
2023/07/02 04:19:19;;;;;;;64.60;33.10;;;16.60;84.30;;;;;;5030786;28;20036;-74
2023/07/02 04:21:45;;;;;;;56.75;31.95;;;16.60;84.20;;;;;;5030591;28;20038;-78
2023/07/02 04:24:10;;;;;;;52.70;32.05;;;16.70;84.00;;;;;;5024124;28;20044;-75
2023/07/02 04:26:36;;;;;;;54.45;30.55;;;16.70;84.10;;;;;;5025439;28;20103;-76
2023/07/02 04:29:02;;;;;;;47.92;29.40;;;16.80;84.10;;;;;;5018197;28;20032;-76
2023/07/02 04:31:28;;;;;;;54.53;31.10;;;16.70;83.80;;;;;;5029523;28;20128;-74
2023/07/02 04:33:53;;;;;;;52.45;30.63;;;16.70;83.50;;;;;;5034053;28;20464;-75
2023/07/02 04:36:19;;;;;;;54.03;31.98;;;16.80;83.70;;;;;;5030336;28;20046;-74
2023/07/02 04:38:45;;;;;;;52.17;31.30;;;16.80;83.50;;;;;;5027507;28;20021;-73
2023/07/02 04:41:10;;;;;;;54.83;31.58;;;16.80;83.40;;;;;;5019798;28;20041;-75
2023/07/02 04:43:36;;;;;;;52.58;30.08;;;16.90;83.40;;;;;;5029316;28;20318;-74
2023/07/02 04:46:02;;;;;;;50.40;30.13;;;16.90;83.10;;;;;;5026542;28;20537;-76
2023/07/02 04:48:28;;;;;;;48.58;30.08;;;16.90;83.00;;;;;;5031526;28;20490;-74
2023/07/02 04:50:54;;;;;;;48.72;30.40;;;17.00;82.90;;;;;;5028797;28;20087;-75
2023/07/02 04:53:19;;;;;;;56.42;31.63;;;17.00;82.60;;;;;;5031398;28;20555;-75
2023/07/02 04:55:45;;;;;;;46.88;28.92;;;17.10;82.10;;;;;;5026978;28;20091;-76
2023/07/02 04:58:11;;;;;;;47.58;27.63;;;17.10;82.00;;;;;;5037625;28;20536;-74
2023/07/02 05:00:36;;;;;;;52.00;29.77;;;17.10;81.90;;;;;;5026980;28;20175;-74
2023/07/02 05:03:02;;;;;;;48.78;27.35;;;17.10;81.70;;;;;;5022189;28;20029;-75
2023/07/02 05:05:27;;;;;;;46.50;28.10;;;17.10;81.40;;;;;;5021353;28;20045;-75
2023/07/02 05:07:54;;;;;;;48.72;26.00;;;17.10;80.80;;;;;;5030294;28;20037;-75
2023/07/02 05:10:20;;;;;;;42.95;25.10;;;17.20;80.20;;;;;;5024989;28;20033;-74
2023/07/02 05:12:46;;;;;;;37.88;22.48;;;17.20;79.50;;;;;;5036488;28;20056;-75
2023/07/02 05:15:12;;;;;;;38.05;21.60;;;17.20;79.00;;;;;;5023477;28;20084;-76
2023/07/02 05:17:37;;;;;;;37.08;20.90;;;17.10;78.40;;;;;;5028534;28;20033;-74
2023/07/02 05:20:06;;;;;;;35.90;19.52;;;17.10;77.70;;;;;;5022317;28;20047;-74
2023/07/02 05:22:32;;;;;;;37.17;20.25;;;17.10;77.60;;;;;;5036132;28;20047;-75
2023/07/02 05:24:58;;;;;;;30.15;18.70;;;17.20;77.10;;;;;;5026690;28;20108;-75
2023/07/02 05:27:24;;;;;;;32.47;18.50;;;17.30;76.90;;;;;;5025352;28;20183;-76
2023/07/02 05:29:49;;;;;;;33.00;18.38;;;17.40;76.80;;;;;;5028523;28;20044;-76
2023/07/02 05:32:15;;;;;;;37.58;17.85;;;17.50;76.10;;;;;;5026888;28;20335;-75
2023/07/02 05:34:41;;;;;;;33.00;17.13;;;17.50;75.50;;;;;;5024161;28;20125;-75
2023/07/02 05:37:06;;;;;;;31.30;17.42;;;17.50;75.20;;;;;;5027116;28;20132;-75
2023/07/02 05:39:34;;;;;;;36.17;18.48;;;17.50;74.80;;;;;;5027064;28;20377;-76
2023/07/02 05:41:59;;;;;;;31.17;18.13;;;17.50;74.60;;;;;;5026655;28;20044;-76
2023/07/02 05:44:25;;;;;;;32.38;17.10;;;17.50;74.30;;;;;;5031783;28;20033;-74
2023/07/02 05:46:50;;;;;;;30.10;16.40;;;17.60;74.50;;;;;;5025958;28;20040;-75
2023/07/02 05:49:16;;;;;;;28.80;15.43;;;17.60;74.10;;;;;;5025207;28;20155;-75
2023/07/02 05:51:42;;;;;;;36.13;17.35;;;17.70;74.00;;;;;;5030724;28;20055;-75
2023/07/02 05:54:07;;;;;;;31.10;17.52;;;17.90;74.10;;;;;;5030702;28;20029;-75
2023/07/02 05:56:33;;;;;;;34.75;18.80;;;18.00;73.90;;;;;;5025527;28;20026;-75
2023/07/02 05:58:59;;;;;;;38.42;19.10;;;18.10;73.60;;;;;;5028441;28;20454;-77
2023/07/02 06:01:24;;;;;;;33.28;18.55;;;18.20;73.20;;;;;;5025835;28;20029;-76
2023/07/02 06:03:50;;;;;;;38.80;18.65;;;18.20;72.80;;;;;;5030684;28;20025;-75
2023/07/02 06:06:16;;;;;;;27.67;17.20;;;18.30;72.60;;;;;;5029512;28;20426;-76
2023/07/02 06:08:42;;;;;;;33.90;18.00;;;18.40;72.30;;;;;;5028812;28;20111;-75
2023/07/02 06:11:09;;;;;;;32.65;17.98;;;18.50;72.00;;;;;;5017560;28;20048;-76
2023/07/02 06:13:34;;;;;;;25.67;16.27;;;18.50;70.70;;;;;;5032122;28;20513;-76
2023/07/02 06:16:00;;;;;;;26.67;15.30;;;18.50;71.00;;;;;;5022358;28;20045;-76
2023/07/02 06:18:26;;;;;;;30.02;16.48;;;18.50;71.10;;;;;;5028076;28;20030;-76
2023/07/02 06:20:53;;;;;;;34.53;17.35;;;18.70;70.40;;;;;;5031349;28;20055;-76
2023/07/02 06:23:19;;;;;;;31.42;17.60;;;18.80;70.90;;;;;;5026672;28;20079;-76
2023/07/02 06:25:44;;;;;;;33.03;18.08;;;18.80;70.80;;;;;;5034463;28;20084;-76
2023/07/02 06:28:10;;;;;;;30.13;18.05;;;19.00;70.90;;;;;;5026209;28;20041;-76
2023/07/02 06:30:36;;;;;;;34.13;19.17;;;19.10;70.60;;;;;;5026044;28;20033;-76
2023/07/02 06:33:02;;;;;;;30.42;17.95;;;19.10;70.60;;;;;;5026757;28;20029;-76
2023/07/02 06:35:27;;;;;;;28.92;15.43;;;19.20;69.20;;;;;;5025954;28;20055;-76
2023/07/02 06:37:53;;;;;;;30.67;16.10;;;19.10;67.30;;;;;;5024011;28;20036;-76
2023/07/02 06:40:20;;;;;;;31.17;16.63;;;19.10;67.40;;;;;;5030342;28;20112;-76
2023/07/02 06:42:46;;;;;;;31.02;15.95;;;19.10;67.50;;;;;;5027650;28;20037;-76
2023/07/02 06:45:11;;;;;;;29.70;16.27;;;19.10;67.90;;;;;;5020921;28;20040;-75
2023/07/02 06:47:37;;;;;;;30.77;17.02;;;19.10;68.10;;;;;;5021095;28;20458;-75
2023/07/02 06:50:04;;;;;;;29.05;17.20;;;19.20;68.00;;;;;;5020724;28;20143;-77
2023/07/02 06:52:30;;;;;;;31.70;18.52;;;19.30;67.90;;;;;;5023471;28;20024;-76
2023/07/02 06:54:55;;;;;;;31.13;18.25;;;19.40;68.00;;;;;;5026852;28;20026;-75
2023/07/02 06:57:21;;;;;;;33.25;17.67;;;19.40;67.40;;;;;;5022335;28;20021;-76
2023/07/02 06:59:47;;;;;;;31.00;17.98;;;19.40;67.30;;;;;;5020423;28;20025;-76
2023/07/02 07:02:12;;;;;;;29.17;16.42;;;19.40;67.30;;;;;;5024548;28;20036;-76
2023/07/02 07:04:38;;;;;;;28.52;16.77;;;19.40;67.20;;;;;;5030626;28;20025;-76
2023/07/02 07:07:03;;;;;;;36.63;17.67;;;19.50;67.10;;;;;;5026279;28;20033;-75
2023/07/02 07:09:30;;;;;;;30.92;16.63;;;19.60;66.30;;;;;;5025517;28;20112;-74
2023/07/02 07:11:56;;;;;;;27.88;16.00;;;19.50;66.00;;;;;;5014172;28;20041;-74
2023/07/02 07:14:21;;;;;;;29.27;16.25;;;19.50;66.60;;;;;;5027803;28;20057;-77
2023/07/02 07:16:47;;;;;;;30.25;17.77;;;19.70;66.50;;;;;;5025530;28;20041;-76
2023/07/02 07:19:13;;;;;;;29.13;16.92;;;19.60;66.30;;;;;;5027421;28;20461;-74
2023/07/02 07:21:39;;;;;;;33.42;16.85;;;19.60;66.50;;;;;;5028706;28;20064;-74
2023/07/02 07:24:05;;;;;;;36.55;17.85;;;19.60;67.50;;;;;;5023110;28;20021;-74
2023/07/02 07:26:31;;;;;;;32.33;18.15;;;19.70;66.60;;;;;;5019884;28;20025;-74
2023/07/02 07:28:57;;;;;;;33.53;18.50;;;19.60;67.00;;;;;;5024679;28;20020;-75
2023/07/02 07:31:26;;;;;;;33.15;17.42;;;19.80;67.40;;;;;;5023408;28;20124;-74
2023/07/02 07:33:52;;;;;;;32.80;18.17;;;20.00;67.20;;;;;;5025327;28;20026;-74
2023/07/02 07:36:18;;;;;;;29.13;18.83;;;20.10;66.50;;;;;;5029625;28;20041;-75
2023/07/02 07:38:44;;;;;;;32.00;17.88;;;19.80;65.80;;;;;;5024413;28;20059;-75
2023/07/02 07:41:09;;;;;;;38.67;18.42;;;20.00;66.30;;;;;;5027965;28;20379;-75
2023/07/02 07:43:35;;;;;;;30.67;18.02;;;20.20;65.00;;;;;;5030677;28;20071;-74
2023/07/02 07:46:01;;;;;;;28.80;17.02;;;20.30;64.70;;;;;;5028252;28;20131;-75
2023/07/02 07:48:26;;;;;;;29.02;15.35;;;20.00;64.90;;;;;;5018448;28;20021;-75
2023/07/02 07:50:52;;;;;;;25.30;14.98;;;19.90;64.90;;;;;;5025921;28;20033;-74
2023/07/02 07:53:18;;;;;;;28.85;14.80;;;20.00;64.10;;;;;;5020712;28;20025;-75
2023/07/02 07:55:43;;;;;;;29.48;14.77;;;19.90;62.90;;;;;;5031198;28;20658;-75
2023/07/02 07:58:09;;;;;;;27.00;15.10;;;19.90;63.50;;;;;;5023414;28;20086;-74
2023/07/02 08:00:35;;;;;;;27.05;14.88;;;20.10;64.20;;;;;;5025449;28;20167;-74
2023/07/02 08:03:02;;;;;;;26.83;14.75;;;20.30;63.30;;;;;;5020479;28;20047;-75
2023/07/02 08:05:29;;;;;;;25.88;14.00;;;20.50;64.30;;;;;;5028272;28;20037;-75
2023/07/02 08:07:55;;;;;;;28.58;15.18;;;20.60;62.60;;;;;;5023769;28;20033;-74
2023/07/02 08:10:21;;;;;;;30.10;14.80;;;20.60;61.60;;;;;;5031193;28;20040;-74
2023/07/02 08:12:47;;;;;;;26.88;14.82;;;21.00;61.10;;;;;;5024392;28;20038;-75
2023/07/02 08:15:13;;;;;;;31.13;14.40;;;20.70;61.70;;;;;;5026735;28;20049;-75
2023/07/02 08:17:38;;;;;;;25.55;14.40;;;20.40;62.10;;;;;;5028279;28;20481;-75
2023/07/02 08:20:09;;;;;;;30.55;13.82;;;20.20;62.70;;;;;;5026258;28;20022;-76
2023/07/02 08:22:38;;;;;;;35.70;15.55;;;20.50;63.10;;;;;;5030594;28;20018;-75
2023/07/02 08:25:05;;;;;;;31.45;15.45;;;20.60;62.70;;;;;;5028347;28;20037;-74
2023/07/02 08:27:31;;;;;;;28.83;14.57;;;20.60;62.60;;;;;;5027454;28;20434;-75
2023/07/02 08:29:56;;;;;;;32.13;15.57;;;20.80;63.20;;;;;;5024088;28;20056;-75
2023/07/02 08:32:22;;;;;;;25.73;13.57;;;20.70;60.60;;;;;;5026234;28;20024;-75
2023/07/02 08:34:48;;;;;;;30.08;13.75;;;20.80;58.60;;;;;;5020924;28;20493;-76
2023/07/02 08:37:13;;;;;;;26.58;13.30;;;20.80;57.30;;;;;;5038974;28;20040;-76
2023/07/02 08:39:39;;;;;;;24.35;12.90;;;21.10;59.70;;;;;;5029658;28;21115;-76
2023/07/02 08:42:05;;;;;;;26.92;12.35;;;21.30;57.10;;;;;;5029905;28;20049;-76
2023/07/02 08:44:31;;;;;;;24.42;13.68;;;21.20;55.10;;;;;;5029036;28;20045;-76
2023/07/02 08:46:57;;;;;;;27.00;13.77;;;21.00;56.60;;;;;;5033435;28;20041;-77
2023/07/02 08:49:23;;;;;;;23.48;12.90;;;21.40;56.30;;;;;;5026200;28;20029;-76
2023/07/02 08:51:49;;;;;;;23.85;13.07;;;21.40;55.10;;;;;;5030052;28;20040;-76
2023/07/02 08:54:17;;;;;;;23.98;12.43;;;21.20;54.70;;;;;;5027857;28;20025;-76
2023/07/02 08:56:45;;;;;;;25.17;13.20;;;21.20;54.30;;;;;;5029233;28;20387;-77
2023/07/02 08:59:10;;;;;;;24.95;13.27;;;21.40;55.40;;;;;;5027870;28;20539;-77
2023/07/02 09:02:05;;;;;;;29.83;13.85;;;21.30;54.90;;;;;;5039425;28;20065;-76
2023/07/02 09:04:30;;;;;;;28.35;12.80;;;21.30;54.80;;;;;;5030300;28;20053;-77
2023/07/02 09:07:08;;;;;;;21.58;12.25;;;21.40;55.30;;;;;;5028240;28;20036;-76
2023/07/02 09:09:48;;;;;;;24.77;12.65;;;21.20;53.50;;;;;;5027950;28;20064;-77
2023/07/02 09:12:28;;;;;;;24.13;12.60;;;21.20;53.50;;;;;;5032881;28;20041;-74
2023/07/02 09:14:58;;;;;;;19.95;10.85;;;21.10;52.70;;;;;;5026705;28;20120;-76
2023/07/02 09:17:35;;;;;;;19.88;11.10;;;20.80;51.70;;;;;;5025197;28;20037;-75
2023/07/02 09:20:07;;;;;;;24.10;12.32;;;21.00;52.00;;;;;;5032204;28;20033;-76
2023/07/02 09:22:34;;;;;;;24.35;11.73;;;21.10;52.20;;;;;;5028135;28;20020;-75
2023/07/02 09:25:01;;;;;;;19.10;11.38;;;21.10;52.00;;;;;;5029052;28;20033;-77
2023/07/02 09:27:35;;;;;;;21.98;10.90;;;21.30;52.20;;;;;;5024865;28;20075;-76
2023/07/02 09:30:07;;;;;;;21.45;10.65;;;21.50;50.90;;;;;;5027262;28;20168;-76
2023/07/02 09:32:32;;;;;;;18.98;9.98;;;21.70;50.70;;;;;;5030103;28;20032;-76
2023/07/02 09:34:58;;;;;;;22.42;9.85;;;21.80;50.40;;;;;;5024157;28;20037;-76
2023/07/02 09:37:24;;;;;;;24.20;10.30;;;21.70;50.80;;;;;;5036389;28;20082;-77
2023/07/02 09:39:55;;;;;;;18.08;9.50;;;21.90;51.10;;;;;;5023389;28;20041;-77
2023/07/02 09:42:22;;;;;;;18.50;9.57;;;22.20;49.40;;;;;;5023977;28;20059;-76
2023/07/02 09:44:51;;;;;;;22.77;9.88;;;22.30;49.50;;;;;;5028185;28;20033;-76
2023/07/02 09:47:18;;;;;;;20.42;9.98;;;22.00;49.80;;;;;;5023702;28;20103;-76
2023/07/02 09:50:05;;;;;;;22.23;10.80;;;21.60;50.60;;;;;;5025873;28;20033;-76
2023/07/02 09:52:33;;;;;;;18.60;8.30;;;21.40;50.60;;;;;;5035053;28;20764;-77
2023/07/02 09:54:58;;;;;;;17.23;8.20;;;21.20;50.30;;;;;;5019851;28;20033;-76
2023/07/02 09:57:24;;;;;;;18.40;8.95;;;21.00;50.60;;;;;;5034585;28;20386;-77
2023/07/02 09:59:50;;;;;;;19.15;8.68;;;20.80;51.00;;;;;;5028112;28;20034;-77
2023/07/02 10:02:17;;;;;;;18.60;8.65;;;21.00;51.80;;;;;;5030027;28;20033;-76
2023/07/02 10:04:47;;;;;;;17.80;8.93;;;21.10;51.10;;;;;;5027701;28;20027;-76
2023/07/02 10:07:27;;;;;;;13.98;7.47;;;21.30;50.30;;;;;;5027500;28;20500;-76
2023/07/02 10:09:52;;;;;;;18.55;8.57;;;21.10;49.30;;;;;;5028808;28;20492;-75
2023/07/02 10:12:26;;;;;;;20.13;9.32;;;21.00;50.00;;;;;;5022397;28;20034;-76
2023/07/02 10:14:53;;;;;;;18.93;8.97;;;21.00;50.20;;;;;;5027223;28;20040;-75
2023/07/02 10:17:36;;;;;;;26.08;10.25;;;21.00;51.30;;;;;;5021989;28;20038;-75
2023/07/02 10:20:11;;;;;;;21.88;10.35;;;21.10;52.40;;;;;;5036980;28;20033;-74
2023/07/02 10:22:44;;;;;;;20.02;10.65;;;21.10;50.80;;;;;;5028790;28;20025;-75
2023/07/02 10:25:10;;;;;;;21.48;9.90;;;21.50;51.60;;;;;;5030734;28;20386;-75
2023/07/02 10:27:38;;;;;;;19.63;10.10;;;21.90;51.00;;;;;;5019296;28;20040;-76
2023/07/02 10:30:05;;;;;;;19.33;9.70;;;22.40;48.90;;;;;;5025872;28;20022;-75
2023/07/02 10:32:31;;;;;;;22.83;10.55;;;22.60;49.80;;;;;;5021292;28;20021;-75
2023/07/02 10:34:58;;;;;;;20.13;9.60;;;22.10;48.20;;;;;;5023653;28;20056;-76
2023/07/02 10:37:24;;;;;;;19.67;10.15;;;21.90;49.30;;;;;;5027651;28;20066;-75
2023/07/02 10:39:51;;;;;;;18.80;9.52;;;22.30;49.00;;;;;;5025211;28;20313;-75
2023/07/02 10:42:17;;;;;;;20.45;9.98;;;22.90;48.50;;;;;;5022403;28;20218;-76
2023/07/02 10:44:52;;;;;;;21.60;10.25;;;23.50;46.90;;;;;;5025959;28;20029;-77
2023/07/02 10:47:19;;;;;;;18.15;9.57;;;23.80;45.70;;;;;;5030850;28;20043;-76
2023/07/02 10:49:45;;;;;;;18.60;9.43;;;24.20;44.50;;;;;;5023746;28;20025;-75
2023/07/02 10:52:11;;;;;;;17.95;9.10;;;24.40;44.90;;;;;;5031631;28;20056;-76
2023/07/02 10:54:44;;;;;;;19.45;9.77;;;24.80;42.80;;;;;;5025888;28;20374;-75
2023/07/02 10:57:13;;;;;;;17.42;9.23;;;24.70;43.00;;;;;;5029338;28;20040;-76
2023/07/02 10:59:39;;;;;;;17.20;9.00;;;24.80;42.00;;;;;;5024926;28;20029;-75
2023/07/02 11:02:06;;;;;;;17.00;9.00;;;24.60;42.60;;;;;;5026067;28;20029;-75
2023/07/02 11:04:33;;;;;;;20.73;9.18;;;24.10;43.30;;;;;;5020441;28;20037;-76
2023/07/02 11:07:00;;;;;;;18.42;9.63;;;23.70;44.60;;;;;;5027923;28;20071;-74
2023/07/02 11:09:26;;;;;;;17.13;9.27;;;23.90;45.00;;;;;;5021141;28;20022;-75
2023/07/02 11:11:57;;;;;;;19.48;9.23;;;23.50;45.50;;;;;;5032477;28;20056;-76
2023/07/02 11:14:33;;;;;;;19.15;8.75;;;23.00;44.60;;;;;;5020940;28;20038;-75
2023/07/02 11:17:03;;;;;;;17.13;9.07;;;22.30;46.00;;;;;;5030066;28;20041;-75
2023/07/02 11:19:29;;;;;;;21.30;9.65;;;22.10;47.20;;;;;;5025096;28;20018;-75
2023/07/02 11:21:56;;;;;;;20.77;9.93;;;21.60;46.70;;;;;;5029944;28;20061;-75
2023/07/02 11:24:36;;;;;;;21.55;9.20;;;21.80;47.70;;;;;;5025404;28;20109;-74
2023/07/02 11:27:05;;;;;;;16.77;8.95;;;22.00;46.40;;;;;;5017525;28;20064;-75
2023/07/02 11:29:32;;;;;;;19.00;8.88;;;22.20;45.90;;;;;;5021764;28;20037;-75
2023/07/02 11:32:09;;;;;;;17.52;9.23;;;22.00;45.50;;;;;;5021527;28;20490;-75
2023/07/02 11:34:35;;;;;;;19.95;8.38;;;22.10;46.70;;;;;;5028036;28;20053;-74
2023/07/02 11:37:01;;;;;;;17.98;9.10;;;22.30;45.00;;;;;;5019256;28;20143;-75
2023/07/02 11:39:27;;;;;;;15.77;8.82;;;22.40;45.70;;;;;;5025454;28;20030;-75
2023/07/02 11:41:52;;;;;;;18.17;9.05;;;23.20;44.70;;;;;;5027143;28;20033;-76
2023/07/02 11:44:18;;;;;;;18.25;7.80;;;23.40;42.90;;;;;;5034907;28;20013;-77
2023/07/02 11:46:44;;;;;;;16.73;8.75;;;23.60;43.40;;;;;;5022983;28;20034;-75
2023/07/02 11:49:10;;;;;;;16.90;7.65;;;23.70;41.90;;;;;;5031300;28;20025;-75
2023/07/02 11:51:39;;;;;;;16.50;7.97;;;23.80;42.80;;;;;;5026093;28;20041;-74
2023/07/02 11:54:05;;;;;;;14.60;7.60;;;23.80;43.50;;;;;;5036240;28;20140;-75
2023/07/02 11:56:38;;;;;;;17.88;8.75;;;23.40;42.60;;;;;;5027094;28;20053;-74
2023/07/02 11:59:03;;;;;;;16.92;8.38;;;23.20;44.10;;;;;;5029056;28;20055;-74
2023/07/02 12:01:29;;;;;;;17.15;8.25;;;23.60;44.20;;;;;;5026216;28;20430;-75
2023/07/02 12:03:55;;;;;;;17.00;8.63;;;24.00;43.80;;;;;;5030999;28;20044;-76
2023/07/02 12:06:20;;;;;;;17.00;8.88;;;24.40;41.10;;;;;;5028122;28;20060;-75
2023/07/02 12:08:46;;;;;;;16.92;8.43;;;24.00;42.20;;;;;;5031400;28;20454;-76
2023/07/02 12:11:11;;;;;;;17.38;8.55;;;23.70;42.00;;;;;;5022920;28;20034;-75
2023/07/02 12:13:37;;;;;;;16.90;8.23;;;23.90;42.40;;;;;;5036217;28;20021;-75
2023/07/02 12:16:03;;;;;;;17.50;8.45;;;23.90;42.10;;;;;;5028096;28;20046;-75
2023/07/02 12:18:29;;;;;;;16.23;7.97;;;24.00;42.80;;;;;;5025571;28;20504;-74
2023/07/02 12:20:54;;;;;;;15.40;8.40;;;24.00;43.00;;;;;;5031463;28;20033;-75
2023/07/02 12:23:20;;;;;;;16.58;7.70;;;23.90;41.90;;;;;;5026293;28;20075;-76
2023/07/02 12:25:46;;;;;;;16.05;8.13;;;24.10;42.30;;;;;;5031975;28;20445;-76